createdAt,value
2023-05-11T00:00:35.122Z,99200.56
2023-05-11T00:03:24.154Z,99200.56
2023-05-11T00:06:48.550Z,99200.59
2023-05-11T00:09:47.625Z,99195.44
2023-05-11T00:12:48.896Z,99194.63
2023-05-11T00:15:42.573Z,99199.75
2023-05-11T00:18:23.188Z,99191.31
2023-05-11T00:21:19.619Z,99191.31
2023-05-11T00:27:23.723Z,99193.13
2023-05-11T00:30:03.959Z,99193.22
2023-05-11T00:32:58.734Z,99195.75
2023-05-11T00:35:54.318Z,99199.41
2023-05-11T00:38:55.618Z,99184.69
2023-05-11T00:41:59.482Z,99186.44
2023-05-11T00:45:02.153Z,99183.66
2023-05-11T00:47:43.623Z,99186.50
2023-05-11T00:50:31.057Z,99184.13
2023-05-11T00:53:22.849Z,99186.69
2023-05-11T00:56:16.332Z,99187.63
2023-05-11T00:59:24.776Z,99192.94
2023-05-11T01:01:57.826Z,99186.56
2023-05-11T01:04:44.938Z,99182.41
2023-05-11T01:08:16.142Z,99188.59
2023-05-11T01:11:14.659Z,99184.06
2023-05-11T01:14:29.533Z,99182.25
2023-05-11T01:17:16.590Z,99184.84
2023-05-11T01:19:56.131Z,99183.91
2023-05-11T01:22:42.282Z,99176.16
2023-05-11T01:29:04.117Z,99175.16
2023-05-11T01:32:02.419Z,99168.19
2023-05-11T01:34:54.856Z,99172.41
2023-05-11T01:37:55.972Z,99171.81
2023-05-11T01:40:43.073Z,99173.41
2023-05-11T01:43:42.884Z,99180.41
2023-05-11T01:46:29.770Z,99176.09
2023-05-11T01:49:11.453Z,99168.31
2023-05-11T01:52:17.418Z,99177.00
2023-05-11T01:55:05.877Z,99174.38
2023-05-11T01:57:45.315Z,99170.00
2023-05-11T02:00:32.827Z,99167.38
2023-05-11T02:03:41.914Z,99170.00
2023-05-11T02:06:28.209Z,99168.25
2023-05-11T02:09:14.221Z,99169.38
2023-05-11T02:15:12.977Z,99166.62
2023-05-11T02:17:56.042Z,99163.37
2023-05-11T02:21:00.608Z,99152.84
2023-05-11T02:24:05.272Z,99163.25
2023-05-11T02:26:43.344Z,99157.19
2023-05-11T02:29:42.596Z,99157.13
2023-05-11T02:32:20.826Z,99157.88
2023-05-11T02:35:35.445Z,99144.88
2023-05-11T02:38:22.794Z,99145.81
2023-05-11T02:41:15.196Z,99155.31
2023-05-11T02:44:03.502Z,99147.53
2023-05-11T02:46:51.927Z,99146.78
2023-05-11T02:49:41.464Z,99143.09
2023-05-11T02:52:31.456Z,99136.09
2023-05-11T02:55:13.672Z,99136.41
2023-05-11T02:58:02.128Z,99138.16
2023-05-11T03:00:56.150Z,99138.94
2023-05-11T03:03:40.213Z,99142.59
2023-05-11T03:06:14.688Z,99149.63
2023-05-11T03:09:13.825Z,99144.41
2023-05-11T03:12:08.729Z,99152.25
2023-05-11T03:15:08.276Z,99149.75
2023-05-11T03:17:43.681Z,99154.06
2023-05-11T03:20:23.667Z,99146.31
2023-05-11T03:23:09.669Z,99148.16
2023-05-11T03:25:48.978Z,99158.62
2023-05-11T03:28:42.767Z,99154.25
2023-05-11T03:31:33.173Z,99148.97
2023-05-11T03:34:22.222Z,99155.94
2023-05-11T03:37:26.261Z,99149.88
2023-05-11T03:40:08.525Z,99157.75
2023-05-11T03:43:15.122Z,99159.34
2023-05-11T03:46:15.839Z,99153.34
2023-05-11T03:49:12.180Z,99159.50
2023-05-11T03:51:50.762Z,99156.00
2023-05-11T03:54:38.528Z,99161.22
2023-05-11T03:57:38.158Z,99155.97
2023-05-11T04:07:11.362Z,99163.75
2023-05-11T04:09:59.401Z,99161.16
2023-05-11T04:13:01.910Z,99160.28
2023-05-11T04:18:58.872Z,99163.75
2023-05-11T04:22:00.290Z,99167.91
2023-05-11T04:24:55.417Z,99162.03
2023-05-11T04:28:11.291Z,99166.47
2023-05-11T04:31:05.829Z,99178.63
2023-05-11T04:34:07.229Z,99173.47
2023-05-11T04:37:35.806Z,99172.53
2023-05-11T04:48:32.468Z,99179.50
2023-05-11T04:51:49.064Z,99182.00
2023-05-11T04:54:58.611Z,99186.88
2023-05-11T04:58:38.433Z,99178.97
2023-05-11T05:02:17.040Z,99182.44
2023-05-11T05:05:09.111Z,99178.09
2023-05-11T05:08:21.459Z,99184.00
2023-05-11T05:21:13.563Z,99188.47
2023-05-11T05:23:56.875Z,99184.81
2023-05-11T05:27:02.092Z,99186.34
2023-05-11T05:29:54.934Z,99184.72
2023-05-11T05:32:43.397Z,99186.16
2023-05-11T05:35:22.138Z,99191.72
2023-05-11T05:38:03.896Z,99191.34
2023-05-11T05:40:50.138Z,99194.84
2023-05-11T05:43:30.833Z,99200.00
2023-05-11T05:46:07.759Z,99206.41
2023-05-11T05:51:43.921Z,99198.78
2023-05-11T05:54:25.516Z,99206.44
2023-05-11T05:57:09.468Z,99206.84
2023-05-11T05:59:46.518Z,99202.97
2023-05-11T06:02:54.735Z,99201.28
2023-05-11T06:05:34.569Z,99198.34
2023-05-11T06:10:41.510Z,99202.09
2023-05-11T06:13:20.831Z,99199.22
2023-05-11T06:15:49.576Z,99197.62
2023-05-11T06:18:24.873Z,99199.91
2023-05-11T06:21:07.921Z,99206.41
2023-05-11T06:23:44.834Z,99203.09
2023-05-11T06:26:15.975Z,99204.91
2023-05-11T06:28:52.909Z,99197.47
2023-05-11T06:31:24.641Z,99205.09
2023-05-11T06:33:58.714Z,99200.94
2023-05-11T06:36:36.143Z,99201.56
2023-05-11T06:39:12.468Z,99207.72
2023-05-11T06:41:43.367Z,99205.06
2023-05-11T06:44:18.782Z,99204.22
2023-05-11T06:46:51.299Z,99200.59
2023-05-11T06:49:25.113Z,99202.94
2023-05-11T06:51:54.252Z,99204.66
2023-05-11T06:54:32.277Z,99201.09
2023-05-11T06:57:09.630Z,99199.47
2023-05-11T06:59:48.336Z,99191.19
2023-05-11T07:02:18.093Z,99204.66
2023-05-11T07:04:50.681Z,99193.56
2023-05-11T07:07:26.634Z,99196.59
2023-05-11T07:10:04.716Z,99186.03
2023-05-11T07:12:44.445Z,99185.50
2023-05-11T07:15:18.043Z,99191.56
2023-05-11T07:17:56.015Z,99180.75
2023-05-11T07:20:29.931Z,99188.19
2023-05-11T07:23:02.074Z,99187.25
2023-05-11T07:25:39.048Z,99189.81
2023-05-11T07:28:19.801Z,99186.53
2023-05-11T07:31:00.549Z,99183.75
2023-05-11T07:33:36.027Z,99182.97
2023-05-11T07:36:15.699Z,99180.66
2023-05-11T07:38:48.590Z,99185.37
2023-05-11T07:41:31.026Z,99183.50
2023-05-11T07:44:07.954Z,99177.72
2023-05-11T07:46:38.430Z,99177.44
2023-05-11T07:49:17.351Z,99179.00
2023-05-11T07:51:54.659Z,99175.72
2023-05-11T07:54:26.443Z,99184.19
2023-05-11T07:57:06.064Z,99178.41
2023-05-11T07:59:41.084Z,99178.91
2023-05-11T08:02:14.362Z,99177.53
2023-05-11T08:04:48.797Z,99167.81
2023-05-11T08:07:26.868Z,99173.69
2023-05-11T08:09:55.657Z,99183.22
2023-05-11T08:12:27.390Z,99178.22
2023-05-11T08:14:58.227Z,99188.78
2023-05-11T08:17:33.166Z,99178.69
2023-05-11T08:20:12.116Z,99180.34
2023-05-11T08:22:44.398Z,99174.62
2023-05-11T08:25:20.156Z,99167.81
2023-05-11T08:28:06.739Z,99162.84
2023-05-11T08:30:44.554Z,99165.56
2023-05-11T08:35:53.861Z,99158.38
2023-05-11T08:38:25.313Z,99144.50
2023-05-11T08:40:59.727Z,99150.72
2023-05-11T08:43:33.673Z,99148.69
2023-05-11T08:46:10.484Z,99152.22
2023-05-11T08:48:46.217Z,99146.87
2023-05-11T08:51:19.427Z,99128.53
2023-05-11T08:54:00.143Z,99138.19
2023-05-11T08:56:35.679Z,99139.78
2023-05-11T08:59:06.572Z,99146.22
2023-05-11T09:01:50.581Z,99124.53
2023-05-11T09:04:27.947Z,99135.25
2023-05-11T09:07:12.843Z,99130.63
2023-05-11T09:09:43.303Z,99128.50
2023-05-11T09:12:15.945Z,99141.00
2023-05-11T09:14:49.674Z,99119.44
2023-05-11T09:17:21.301Z,99122.56
2023-05-11T09:20:11.304Z,99122.22
2023-05-11T09:22:56.578Z,99113.38
2023-05-11T09:25:27.823Z,99125.03
2023-05-11T09:28:04.000Z,99114.19
2023-05-11T09:30:42.708Z,99107.28
2023-05-11T09:33:22.109Z,99088.84
2023-05-11T09:35:52.423Z,99115.59
2023-05-11T09:38:28.131Z,99108.75
2023-05-11T09:41:01.143Z,99092.97
2023-05-11T09:43:38.984Z,99094.87
2023-05-11T09:46:23.489Z,99101.94
2023-05-11T09:49:02.258Z,99093.75
2023-05-11T09:51:40.623Z,99096.78
2023-05-11T09:54:23.111Z,99099.88
2023-05-11T09:56:58.946Z,99091.53
2023-05-11T09:59:43.080Z,99092.22
2023-05-11T10:02:19.233Z,99083.19
2023-05-11T10:05:03.202Z,99071.47
2023-05-11T10:07:41.212Z,99086.00
2023-05-11T10:10:13.692Z,99074.69
2023-05-11T10:12:44.793Z,99063.72
2023-05-11T10:15:36.253Z,99069.59
2023-05-11T10:18:08.386Z,99072.81
2023-05-11T10:20:51.384Z,99073.88
2023-05-11T10:23:38.824Z,99080.50
2023-05-11T10:26:25.940Z,99071.63
2023-05-11T10:29:14.069Z,99072.72
2023-05-11T10:31:51.325Z,99055.59
2023-05-11T10:34:24.021Z,99073.25
2023-05-11T10:37:17.706Z,99065.75
2023-05-11T10:40:02.185Z,99067.44
2023-05-11T10:43:11.888Z,99066.44
2023-05-11T10:46:30.336Z,99064.09
2023-05-11T10:49:43.258Z,99044.31
2023-05-11T10:53:02.362Z,99060.94
2023-05-11T10:59:28.969Z,99053.28
2023-05-11T11:02:13.742Z,99048.78
2023-05-11T11:05:30.808Z,99077.31
2023-05-11T11:16:19.201Z,99055.47
2023-05-11T11:20:04.592Z,99040.44
2023-05-11T11:27:52.004Z,99038.38
2023-05-11T11:32:02.814Z,99040.37
2023-05-11T11:43:03.599Z,99020.88
2023-05-11T11:47:12.741Z,99023.50
2023-05-11T11:50:41.950Z,99025.78
2023-05-11T11:54:36.975Z,99028.00
2023-05-11T11:57:52.765Z,99033.94
2023-05-11T12:00:27.804Z,99022.28
2023-05-11T12:03:12.905Z,99031.34
2023-05-11T12:06:14.327Z,99032.31
2023-05-11T12:10:02.227Z,99028.72
2023-05-11T12:12:52.478Z,99026.91
2023-05-11T12:15:54.567Z,98996.56
2023-05-11T12:18:49.413Z,99004.84
2023-05-11T12:21:49.157Z,99005.34
2023-05-11T12:24:27.003Z,99002.87
2023-05-11T12:27:18.689Z,99020.41
2023-05-11T12:30:32.505Z,99012.56
2023-05-11T12:34:05.266Z,98999.16
2023-05-11T12:37:17.387Z,99007.72
2023-05-11T12:40:26.127Z,98975.72
2023-05-11T12:43:12.287Z,98992.84
2023-05-11T12:46:08.544Z,98976.59
2023-05-11T12:48:45.469Z,98965.47
2023-05-11T12:55:01.070Z,98974.00
2023-05-11T12:57:54.360Z,98979.22
2023-05-11T13:00:42.795Z,98974.13
2023-05-11T13:03:50.873Z,98972.34
2023-05-11T13:06:44.094Z,98981.72
2023-05-11T13:09:47.556Z,98961.50
2023-05-11T13:12:39.992Z,98958.63
2023-05-11T13:15:39.797Z,98952.81
2023-05-11T13:18:30.185Z,98962.38
2023-05-11T13:21:36.289Z,98964.28
2023-05-11T13:24:27.900Z,98946.06
2023-05-11T13:27:22.782Z,98948.84
2023-05-11T13:30:10.122Z,98951.59
2023-05-11T13:33:25.443Z,98949.47
2023-05-11T13:36:41.391Z,98945.62
2023-05-11T13:39:48.920Z,98956.00
2023-05-11T13:42:48.409Z,98938.16
2023-05-11T13:45:40.911Z,98938.91
2023-05-11T13:51:34.831Z,98945.22
2023-05-11T13:54:39.733Z,98932.84
2023-05-11T13:57:36.797Z,98939.75
2023-05-11T14:00:56.624Z,98930.56
2023-05-11T14:03:58.969Z,98929.41
2023-05-11T14:07:17.583Z,98929.19
2023-05-11T14:11:05.889Z,98933.63
2023-05-11T14:13:31.388Z,98934.69
2023-05-11T14:16:46.165Z,98928.09
2023-05-11T14:20:01.867Z,98918.59
2023-05-11T14:23:14.395Z,98924.66
2023-05-11T14:26:16.895Z,98923.03
2023-05-11T14:29:06.933Z,98917.72
2023-05-11T14:32:51.142Z,98922.94
2023-05-11T14:35:37.780Z,98914.31
2023-05-11T14:39:03.079Z,98913.06
2023-05-11T14:47:46.976Z,98910.53
2023-05-11T14:50:31.248Z,98919.97
2023-05-11T14:53:24.770Z,98919.44
2023-05-11T14:56:18.592Z,98919.47
2023-05-11T14:59:10.860Z,98916.47
2023-05-11T15:01:56.331Z,98922.00
2023-05-11T15:09:32.617Z,98912.66
2023-05-11T15:12:36.866Z,98916.25
2023-05-11T15:15:54.316Z,98924.22
2023-05-11T15:19:00.690Z,98921.94
2023-05-11T15:21:58.436Z,98921.59
2023-05-11T15:25:06.943Z,98926.94
2023-05-11T15:28:20.272Z,98932.16
2023-05-11T15:31:39.179Z,98924.44
2023-05-11T15:38:23.382Z,98932.78
2023-05-11T15:41:07.998Z,98937.56
2023-05-11T15:45:00.806Z,98932.75
2023-05-11T15:48:25.429Z,98935.28
2023-05-11T15:55:35.086Z,98944.34
2023-05-11T15:59:18.752Z,98935.59
2023-05-11T16:01:58.364Z,98933.41
2023-05-11T16:05:13.482Z,98929.50
2023-05-11T16:08:31.820Z,98949.69
2023-05-11T16:11:58.594Z,98955.97
2023-05-11T16:15:07.929Z,98950.38
2023-05-11T16:18:10.622Z,98959.06
2023-05-11T16:21:28.583Z,98962.19
2023-05-11T16:28:47.282Z,98963.78
2023-05-11T16:35:23.134Z,98972.37
2023-05-11T16:38:49.787Z,98977.38
2023-05-11T16:41:59.836Z,98976.97
2023-05-11T16:48:42.062Z,98993.59
2023-05-11T16:51:47.331Z,98997.72
2023-05-11T16:55:12.734Z,98993.25
2023-05-11T16:58:03.033Z,98998.41
2023-05-11T17:07:46.285Z,99007.38
2023-05-11T17:13:54.348Z,99011.41
2023-05-11T17:17:14.072Z,99017.84
2023-05-11T17:20:20.590Z,99019.19
2023-05-11T17:24:01.818Z,99028.47
2023-05-11T17:26:49.338Z,99026.56
2023-05-11T17:29:41.048Z,99031.78
2023-05-11T17:36:25.932Z,99036.59
2023-05-11T17:40:34.422Z,99035.59
2023-05-11T17:44:04.975Z,99048.94
2023-05-11T17:47:09.891Z,99053.22
2023-05-11T17:50:01.892Z,99047.53
2023-05-11T17:56:29.230Z,99066.19
2023-05-11T18:00:17.234Z,99066.59
2023-05-11T18:04:04.160Z,99071.06
2023-05-11T18:13:32.152Z,99096.00
2023-05-11T18:19:44.247Z,99104.19
2023-05-11T18:26:05.262Z,99110.50
2023-05-11T18:29:23.512Z,99113.16
2023-05-11T18:36:12.826Z,99128.69
2023-05-11T18:39:46.065Z,99134.28
2023-05-11T18:43:48.145Z,99132.22
2023-05-11T18:57:49.160Z,99162.16
2023-05-11T19:01:19.094Z,99158.75
2023-05-11T19:08:49.211Z,99178.41
2023-05-11T19:16:14.735Z,99186.34
2023-05-11T19:20:04.981Z,99179.91
2023-05-11T19:27:06.564Z,99186.94
2023-05-11T19:30:35.580Z,99191.31
2023-05-11T19:33:56.579Z,99190.50
2023-05-11T19:37:47.607Z,99197.59
2023-05-11T19:42:38.976Z,99191.41
2023-05-11T19:46:03.741Z,99188.19
2023-05-11T19:49:39.733Z,99194.03
2023-05-11T20:01:34.016Z,99189.69
2023-05-11T20:09:56.942Z,99189.91
2023-05-11T20:17:52.358Z,99187.06
2023-05-11T20:24:53.796Z,99178.53
2023-05-11T20:32:29.337Z,99193.22
2023-05-11T20:36:23.733Z,99196.62
2023-05-11T21:09:13.904Z,99191.72
2023-05-11T21:13:23.204Z,99191.72
2023-05-11T21:16:17.856Z,99186.50
2023-05-11T21:19:57.218Z,99179.56
2023-05-11T21:27:23.111Z,99181.28
2023-05-11T21:34:34.544Z,99169.97
2023-05-11T21:37:24.889Z,99179.56
2023-05-11T21:40:52.160Z,99177.81
2023-05-11T21:51:15.863Z,99187.38
2023-05-11T21:54:36.848Z,99188.22
2023-05-11T21:57:31.454Z,99184.75
2023-05-11T22:16:29.791Z,99189.97
2023-05-11T22:24:01.105Z,99192.59
2023-05-11T22:39:02.645Z,99196.03
2023-05-11T22:50:23.806Z,99205.56
2023-05-11T22:53:18.298Z,99208.09
2023-05-11T22:56:48.709Z,99208.87
2023-05-11T23:11:54.129Z,99210.56
2023-05-11T23:14:57.269Z,99207.19
2023-05-11T23:17:45.871Z,99198.44
2023-05-11T23:21:27.584Z,99200.22
2023-05-11T23:24:17.015Z,99201.94
2023-05-11T23:39:31.283Z,99199.50
2023-05-11T23:43:35.995Z,99195.03
2023-05-11T23:50:23.117Z,99183.84
